Airport View

Enter AWOS ICAO identifier for current METAR.

ex. KFNL

KAEJ 210035Z AUTO 20017G27KT 10SM SCT120 19/M10 A3000 RMK AO2 T01911104

21 Sep 2019 00:38

Frequency: 132.925

Phone: 719-395-2599

Other Area AWOS: K7BM - KANK - KMYP - KLXV

TAF KASE 202322Z 2100/2124 20010G17KT P6SM FEW090 SCT110 FM210200 24007KT P6SM SCT100 FM211500 02004KT P6SM SKC FM211700 27006KT P6SM FEW250 FM211800 33011G18KT P6SM SCT250